sensor_id;sensor_type;location;lat;lon;timestamp;pressure;altitude;pressure_sealevel;temperature;humidity
62946;BME280;52164;52.212;-1.010;2023-04-07T00:01:12;100916.75;;;5.65;70.38
62946;BME280;52164;52.212;-1.010;2023-04-07T00:03:37;100916.82;;;5.61;70.27
62946;BME280;52164;52.212;-1.010;2023-04-07T00:06:04;100918.30;;;5.56;70.87
62946;BME280;52164;52.212;-1.010;2023-04-07T00:08:30;100924.42;;;5.54;70.85
62946;BME280;52164;52.212;-1.010;2023-04-07T00:10:55;100928.61;;;5.51;70.61
62946;BME280;52164;52.212;-1.010;2023-04-07T00:13:21;100928.73;;;5.49;71.00
62946;BME280;52164;52.212;-1.010;2023-04-07T00:15:46;100929.19;;;5.46;70.92
62946;BME280;52164;52.212;-1.010;2023-04-07T00:18:12;100930.88;;;5.43;70.72
62946;BME280;52164;52.212;-1.010;2023-04-07T00:20:37;100930.55;;;5.38;71.38
62946;BME280;52164;52.212;-1.010;2023-04-07T00:23:03;100932.08;;;5.35;71.24
62946;BME280;52164;52.212;-1.010;2023-04-07T00:25:28;100936.21;;;5.32;71.44
62946;BME280;52164;52.212;-1.010;2023-04-07T00:27:53;100938.96;;;5.28;71.20
62946;BME280;52164;52.212;-1.010;2023-04-07T00:30:18;100939.36;;;5.24;70.99
62946;BME280;52164;52.212;-1.010;2023-04-07T00:32:44;100939.42;;;5.20;71.03
62946;BME280;52164;52.212;-1.010;2023-04-07T00:35:09;100939.69;;;5.17;71.03
62946;BME280;52164;52.212;-1.010;2023-04-07T00:37:37;100942.14;;;5.16;71.58
62946;BME280;52164;52.212;-1.010;2023-04-07T00:40:04;100937.36;;;5.15;71.66
62946;BME280;52164;52.212;-1.010;2023-04-07T00:42:29;100942.11;;;5.15;71.64
62946;BME280;52164;52.212;-1.010;2023-04-07T00:44:55;100945.63;;;5.14;71.32
62946;BME280;52164;52.212;-1.010;2023-04-07T00:47:20;100950.67;;;5.11;71.82
62946;BME280;52164;52.212;-1.010;2023-04-07T00:49:46;100951.69;;;5.09;71.85
62946;BME280;52164;52.212;-1.010;2023-04-07T00:52:11;100951.36;;;5.10;71.97
62946;BME280;52164;52.212;-1.010;2023-04-07T00:54:37;100954.70;;;5.09;72.01
62946;BME280;52164;52.212;-1.010;2023-04-07T00:57:03;100959.82;;;5.09;71.96
62946;BME280;52164;52.212;-1.010;2023-04-07T00:59:29;100961.92;;;5.08;72.21
62946;BME280;52164;52.212;-1.010;2023-04-07T01:01:58;100961.33;;;5.06;72.17
62946;BME280;52164;52.212;-1.010;2023-04-07T01:04:31;100962.98;;;5.02;72.12
62946;BME280;52164;52.212;-1.010;2023-04-07T01:07:00;100957.80;;;5.00;72.33
62946;BME280;52164;52.212;-1.010;2023-04-07T01:11:41;100956.80;;;4.97;72.60
62946;BME280;52164;52.212;-1.010;2023-04-07T01:12:24;100958.66;;;4.94;72.59
62946;BME280;52164;52.212;-1.010;2023-04-07T01:14:54;100965.83;;;4.91;72.41
62946;BME280;52164;52.212;-1.010;2023-04-07T01:17:22;100968.69;;;4.87;72.24
62946;BME280;52164;52.212;-1.010;2023-04-07T01:19:58;100969.66;;;4.83;72.68
62946;BME280;52164;52.212;-1.010;2023-04-07T01:22:26;100972.52;;;4.79;72.53
62946;BME280;52164;52.212;-1.010;2023-04-07T01:27:20;100971.86;;;4.74;72.68
62946;BME280;52164;52.212;-1.010;2023-04-07T01:30:04;100967.56;;;4.67;73.06
62946;BME280;52164;52.212;-1.010;2023-04-07T01:32:33;100971.41;;;4.65;72.86
62946;BME280;52164;52.212;-1.010;2023-04-07T01:35:01;100969.05;;;4.63;72.99
62946;BME280;52164;52.212;-1.010;2023-04-07T01:37:27;100970.98;;;4.63;73.32
62946;BME280;52164;52.212;-1.010;2023-04-07T01:39:54;100977.01;;;4.64;73.21
62946;BME280;52164;52.212;-1.010;2023-04-07T01:42:21;100975.23;;;4.63;73.47
62946;BME280;52164;52.212;-1.010;2023-04-07T01:44:46;100971.74;;;4.65;73.62
62946;BME280;52164;52.212;-1.010;2023-04-07T01:47:12;100970.72;;;4.66;73.37
62946;BME280;52164;52.212;-1.010;2023-04-07T01:49:38;100966.46;;;4.66;73.50
62946;BME280;52164;52.212;-1.010;2023-04-07T01:52:04;100969.48;;;4.66;73.58
62946;BME280;52164;52.212;-1.010;2023-04-07T01:54:30;100966.13;;;4.66;73.98
62946;BME280;52164;52.212;-1.010;2023-04-07T01:56:56;100970.23;;;4.67;73.95
62946;BME280;52164;52.212;-1.010;2023-04-07T01:59:21;100972.49;;;4.67;73.83
62946;BME280;52164;52.212;-1.010;2023-04-07T02:01:46;100970.83;;;4.64;74.06
62946;BME280;52164;52.212;-1.010;2023-04-07T02:04:19;100978.92;;;4.63;74.22
62946;BME280;52164;52.212;-1.010;2023-04-07T02:06:49;100984.52;;;4.61;74.00
62946;BME280;52164;52.212;-1.010;2023-04-07T02:09:16;100986.73;;;4.58;74.29
62946;BME280;52164;52.212;-1.010;2023-04-07T02:11:44;100997.00;;;4.53;73.87
62946;BME280;52164;52.212;-1.010;2023-04-07T02:14:10;100994.20;;;4.48;74.26
62946;BME280;52164;52.212;-1.010;2023-04-07T02:16:36;100996.95;;;4.46;74.45
62946;BME280;52164;52.212;-1.010;2023-04-07T02:19:03;100998.15;;;4.45;74.44
62946;BME280;52164;52.212;-1.010;2023-04-07T02:21:29;100995.98;;;4.44;74.58
62946;BME280;52164;52.212;-1.010;2023-04-07T02:23:55;100994.16;;;4.42;74.47
62946;BME280;52164;52.212;-1.010;2023-04-07T02:26:20;100993.48;;;4.37;74.07
62946;BME280;52164;52.212;-1.010;2023-04-07T02:28:45;100992.16;;;4.35;74.17
62946;BME280;52164;52.212;-1.010;2023-04-07T02:31:11;100991.92;;;4.32;74.44
62946;BME280;52164;52.212;-1.010;2023-04-07T02:33:38;100993.13;;;4.32;74.58
62946;BME280;52164;52.212;-1.010;2023-04-07T02:36:03;100995.09;;;4.32;74.59
62946;BME280;52164;52.212;-1.010;2023-04-07T02:38:28;100993.31;;;4.32;74.52
62946;BME280;52164;52.212;-1.010;2023-04-07T02:40:54;100992.48;;;4.33;74.89
62946;BME280;52164;52.212;-1.010;2023-04-07T02:43:22;100990.98;;;4.37;74.86
62946;BME280;52164;52.212;-1.010;2023-04-07T02:45:47;100987.54;;;4.39;74.71
62946;BME280;52164;52.212;-1.010;2023-04-07T02:48:13;100989.09;;;4.43;75.33
62946;BME280;52164;52.212;-1.010;2023-04-07T02:50:38;100989.16;;;4.46;75.32
62946;BME280;52164;52.212;-1.010;2023-04-07T02:53:05;100987.23;;;4.46;75.22
62946;BME280;52164;52.212;-1.010;2023-04-07T02:55:31;100987.40;;;4.46;74.99
62946;BME280;52164;52.212;-1.010;2023-04-07T02:57:56;100985.29;;;4.46;74.96
62946;BME280;52164;52.212;-1.010;2023-04-07T03:00:21;100985.62;;;4.45;75.32
62946;BME280;52164;52.212;-1.010;2023-04-07T03:02:47;100983.82;;;4.44;75.35
62946;BME280;52164;52.212;-1.010;2023-04-07T03:05:12;100984.12;;;4.43;75.29
62946;BME280;52164;52.212;-1.010;2023-04-07T03:07:37;100984.90;;;4.39;75.20
62946;BME280;52164;52.212;-1.010;2023-04-07T03:10:02;100980.23;;;4.37;75.25
62946;BME280;52164;52.212;-1.010;2023-04-07T03:12:28;100982.10;;;4.35;75.53
62946;BME280;52164;52.212;-1.010;2023-04-07T03:14:53;100982.87;;;4.31;75.55
62946;BME280;52164;52.212;-1.010;2023-04-07T03:17:19;100984.02;;;4.28;75.47
62946;BME280;52164;52.212;-1.010;2023-04-07T03:19:44;100986.01;;;4.25;75.59
62946;BME280;52164;52.212;-1.010;2023-04-07T03:22:11;100985.77;;;4.23;75.84
62946;BME280;52164;52.212;-1.010;2023-04-07T03:24:36;100988.16;;;4.20;76.05
62946;BME280;52164;52.212;-1.010;2023-04-07T03:27:03;100989.34;;;4.19;75.85
62946;BME280;52164;52.212;-1.010;2023-04-07T03:29:29;100989.27;;;4.17;75.79
62946;BME280;52164;52.212;-1.010;2023-04-07T03:31:54;100989.86;;;4.13;75.69
62946;BME280;52164;52.212;-1.010;2023-04-07T03:34:20;100988.29;;;4.09;76.04
62946;BME280;52164;52.212;-1.010;2023-04-07T03:36:45;100989.08;;;4.05;76.20
62946;BME280;52164;52.212;-1.010;2023-04-07T03:39:10;100991.42;;;4.02;76.24
62946;BME280;52164;52.212;-1.010;2023-04-07T03:41:37;100993.40;;;3.97;76.25
62946;BME280;52164;52.212;-1.010;2023-04-07T03:44:03;100992.17;;;3.92;76.18
62946;BME280;52164;52.212;-1.010;2023-04-07T03:46:29;100992.67;;;3.87;75.96
62946;BME280;52164;52.212;-1.010;2023-04-07T03:48:54;100993.95;;;3.83;76.12
62946;BME280;52164;52.212;-1.010;2023-04-07T03:51:20;100993.66;;;3.80;76.18
62946;BME280;52164;52.212;-1.010;2023-04-07T03:53:46;100991.95;;;3.76;75.98
62946;BME280;52164;52.212;-1.010;2023-04-07T03:56:11;100992.38;;;3.74;76.13
62946;BME280;52164;52.212;-1.010;2023-04-07T03:58:36;100995.73;;;3.73;75.95
62946;BME280;52164;52.212;-1.010;2023-04-07T04:01:02;100996.05;;;3.73;76.54
62946;BME280;52164;52.212;-1.010;2023-04-07T04:03:28;100994.90;;;3.75;76.56
62946;BME280;52164;52.212;-1.010;2023-04-07T04:05:53;100994.80;;;3.77;76.42
62946;BME280;52164;52.212;-1.010;2023-04-07T04:08:19;100997.35;;;3.79;76.69
62946;BME280;52164;52.212;-1.010;2023-04-07T04:10:44;100995.16;;;3.82;76.82
62946;BME280;52164;52.212;-1.010;2023-04-07T04:13:09;100991.55;;;3.85;76.87
62946;BME280;52164;52.212;-1.010;2023-04-07T04:15:35;100995.51;;;3.87;76.81
62946;BME280;52164;52.212;-1.010;2023-04-07T04:18:00;100995.57;;;3.89;76.85
62946;BME280;52164;52.212;-1.010;2023-04-07T04:20:25;100996.98;;;3.88;76.88
62946;BME280;52164;52.212;-1.010;2023-04-07T04:22:51;100999.58;;;3.87;76.99
62946;BME280;52164;52.212;-1.010;2023-04-07T04:25:16;101004.34;;;3.87;77.17
62946;BME280;52164;52.212;-1.010;2023-04-07T04:27:42;101010.67;;;3.87;77.46
62946;BME280;52164;52.212;-1.010;2023-04-07T04:30:07;101011.34;;;3.85;77.42
62946;BME280;52164;52.212;-1.010;2023-04-07T04:32:32;101013.23;;;3.84;77.41
62946;BME280;52164;52.212;-1.010;2023-04-07T04:34:58;101012.83;;;3.82;77.72
62946;BME280;52164;52.212;-1.010;2023-04-07T04:37:24;101011.51;;;3.80;77.41
62946;BME280;52164;52.212;-1.010;2023-04-07T04:39:50;101018.64;;;3.77;77.65
62946;BME280;52164;52.212;-1.010;2023-04-07T04:42:17;101018.83;;;3.73;77.57
62946;BME280;52164;52.212;-1.010;2023-04-07T04:44:44;101020.80;;;3.68;77.48
62946;BME280;52164;52.212;-1.010;2023-04-07T04:47:09;101019.25;;;3.64;77.62
62946;BME280;52164;52.212;-1.010;2023-04-07T04:49:35;101024.36;;;3.60;77.60
62946;BME280;52164;52.212;-1.010;2023-04-07T04:52:00;101031.30;;;3.56;78.03
62946;BME280;52164;52.212;-1.010;2023-04-07T04:54:26;101031.02;;;3.53;78.18
62946;BME280;52164;52.212;-1.010;2023-04-07T04:56:51;101036.21;;;3.50;78.31
62946;BME280;52164;52.212;-1.010;2023-04-07T04:59:16;101040.67;;;3.47;78.36
62946;BME280;52164;52.212;-1.010;2023-04-07T05:01:42;101041.01;;;3.42;78.38
62946;BME280;52164;52.212;-1.010;2023-04-07T05:04:07;101040.98;;;3.41;78.75
62946;BME280;52164;52.212;-1.010;2023-04-07T05:06:34;101047.66;;;3.40;78.83
62946;BME280;52164;52.212;-1.010;2023-04-07T05:08:59;101049.27;;;3.41;78.83
62946;BME280;52164;52.212;-1.010;2023-04-07T05:11:25;101050.36;;;3.42;78.86
62946;BME280;52164;52.212;-1.010;2023-04-07T05:13:50;101057.48;;;3.43;78.85
62946;BME280;52164;52.212;-1.010;2023-04-07T05:16:16;101058.42;;;3.45;78.68
62946;BME280;52164;52.212;-1.010;2023-04-07T05:18:41;101062.73;;;3.47;78.65
62946;BME280;52164;52.212;-1.010;2023-04-07T05:21:06;101064.16;;;3.47;78.48
62946;BME280;52164;52.212;-1.010;2023-04-07T05:23:31;101072.63;;;3.47;78.31
62946;BME280;52164;52.212;-1.010;2023-04-07T05:25:57;101072.96;;;3.47;78.36
62946;BME280;52164;52.212;-1.010;2023-04-07T05:28:22;101074.64;;;3.49;78.50
62946;BME280;52164;52.212;-1.010;2023-04-07T05:30:47;101078.06;;;3.51;78.57
62946;BME280;52164;52.212;-1.010;2023-04-07T05:33:12;101082.02;;;3.53;78.89
62946;BME280;52164;52.212;-1.010;2023-04-07T05:35:38;101079.41;;;3.54;78.59
62946;BME280;52164;52.212;-1.010;2023-04-07T05:38:03;101075.25;;;3.57;78.79
62946;BME280;52164;52.212;-1.010;2023-04-07T05:40:28;101079.20;;;3.58;78.80
62946;BME280;52164;52.212;-1.010;2023-04-07T05:42:57;101083.30;;;3.59;78.71
62946;BME280;52164;52.212;-1.010;2023-04-07T05:45:26;101084.79;;;3.61;78.54
62946;BME280;52164;52.212;-1.010;2023-04-07T05:47:51;101091.08;;;3.64;78.45
62946;BME280;52164;52.212;-1.010;2023-04-07T05:50:16;101091.33;;;3.66;78.60
62946;BME280;52164;52.212;-1.010;2023-04-07T05:52:42;101091.48;;;3.65;78.47
62946;BME280;52164;52.212;-1.010;2023-04-07T05:55:07;101092.75;;;3.66;78.34
62946;BME280;52164;52.212;-1.010;2023-04-07T05:57:32;101090.58;;;3.65;78.08
62946;BME280;52164;52.212;-1.010;2023-04-07T05:59:58;101093.77;;;3.65;78.14
62946;BME280;52164;52.212;-1.010;2023-04-07T06:02:24;101093.18;;;3.64;78.00
62946;BME280;52164;52.212;-1.010;2023-04-07T06:04:50;101095.65;;;3.63;78.20
62946;BME280;52164;52.212;-1.010;2023-04-07T06:07:15;101094.74;;;3.63;78.27
62946;BME280;52164;52.212;-1.010;2023-04-07T06:09:40;101097.04;;;3.63;78.55
62946;BME280;52164;52.212;-1.010;2023-04-07T06:12:07;101096.02;;;3.64;78.70
62946;BME280;52164;52.212;-1.010;2023-04-07T06:14:33;101096.27;;;3.65;78.60
62946;BME280;52164;52.212;-1.010;2023-04-07T06:16:58;101100.96;;;3.69;78.60
62946;BME280;52164;52.212;-1.010;2023-04-07T06:19:23;101102.14;;;3.72;78.90
62946;BME280;52164;52.212;-1.010;2023-04-07T06:21:51;101107.24;;;3.77;78.84
62946;BME280;52164;52.212;-1.010;2023-04-07T06:24:16;101107.92;;;3.80;78.54
62946;BME280;52164;52.212;-1.010;2023-04-07T06:26:43;101107.22;;;3.85;78.27
62946;BME280;52164;52.212;-1.010;2023-04-07T06:29:08;101112.27;;;3.93;78.13
62946;BME280;52164;52.212;-1.010;2023-04-07T06:31:33;101114.66;;;4.01;78.14
62946;BME280;52164;52.212;-1.010;2023-04-07T06:33:59;101117.58;;;4.08;78.12
62946;BME280;52164;52.212;-1.010;2023-04-07T06:36:24;101124.74;;;4.16;78.03
62946;BME280;52164;52.212;-1.010;2023-04-07T06:38:49;101129.79;;;4.24;77.88
62946;BME280;52164;52.212;-1.010;2023-04-07T06:41:15;101134.18;;;4.33;78.17
62946;BME280;52164;52.212;-1.010;2023-04-07T06:43:42;101137.67;;;4.42;77.95
62946;BME280;52164;52.212;-1.010;2023-04-07T06:46:07;101136.37;;;4.50;77.89
62946;BME280;52164;52.212;-1.010;2023-04-07T06:48:33;101140.25;;;4.60;78.08
62946;BME280;52164;52.212;-1.010;2023-04-07T06:50:58;101144.98;;;4.69;77.90
62946;BME280;52164;52.212;-1.010;2023-04-07T06:53:23;101146.71;;;4.79;77.81
62946;BME280;52164;52.212;-1.010;2023-04-07T06:55:48;101149.11;;;4.87;77.76
62946;BME280;52164;52.212;-1.010;2023-04-07T06:58:14;101149.67;;;4.93;77.48
62946;BME280;52164;52.212;-1.010;2023-04-07T07:00:39;101154.30;;;5.00;77.05
62946;BME280;52164;52.212;-1.010;2023-04-07T07:03:05;101156.98;;;5.06;76.91
62946;BME280;52164;52.212;-1.010;2023-04-07T07:05:30;101161.92;;;5.11;76.92
62946;BME280;52164;52.212;-1.010;2023-04-07T07:07:55;101164.77;;;5.17;76.86
62946;BME280;52164;52.212;-1.010;2023-04-07T07:10:21;101164.45;;;5.23;76.85
62946;BME280;52164;52.212;-1.010;2023-04-07T07:12:47;101168.21;;;5.30;76.61
62946;BME280;52164;52.212;-1.010;2023-04-07T07:15:12;101168.37;;;5.35;76.10
62946;BME280;52164;52.212;-1.010;2023-04-07T07:17:37;101167.98;;;5.40;75.99
62946;BME280;52164;52.212;-1.010;2023-04-07T07:20:03;101167.78;;;5.45;75.65
62946;BME280;52164;52.212;-1.010;2023-04-07T07:22:28;101166.56;;;5.51;75.86
62946;BME280;52164;52.212;-1.010;2023-04-07T07:24:54;101169.40;;;5.57;75.86
62946;BME280;52164;52.212;-1.010;2023-04-07T07:27:20;101165.23;;;5.65;76.06
62946;BME280;52164;52.212;-1.010;2023-04-07T07:29:45;101168.66;;;5.73;75.69
62946;BME280;52164;52.212;-1.010;2023-04-07T07:32:10;101170.10;;;5.80;75.68
62946;BME280;52164;52.212;-1.010;2023-04-07T07:34:36;101168.02;;;5.88;75.69
62946;BME280;52164;52.212;-1.010;2023-04-07T07:37:01;101168.02;;;5.94;75.46
62946;BME280;52164;52.212;-1.010;2023-04-07T07:39:27;101171.27;;;6.00;75.15
62946;BME280;52164;52.212;-1.010;2023-04-07T07:41:53;101179.39;;;6.06;74.94
62946;BME280;52164;52.212;-1.010;2023-04-07T07:44:19;101179.04;;;6.11;75.21
62946;BME280;52164;52.212;-1.010;2023-04-07T07:46:45;101176.20;;;6.18;74.95
62946;BME280;52164;52.212;-1.010;2023-04-07T07:49:10;101181.86;;;6.25;74.48
62946;BME280;52164;52.212;-1.010;2023-04-07T07:51:35;101178.83;;;6.30;74.81
62946;BME280;52164;52.212;-1.010;2023-04-07T07:54:01;101180.38;;;6.34;74.62
62946;BME280;52164;52.212;-1.010;2023-04-07T07:56:26;101187.23;;;6.39;74.28
62946;BME280;52164;52.212;-1.010;2023-04-07T07:58:51;101183.96;;;6.42;74.04
62946;BME280;52164;52.212;-1.010;2023-04-07T08:01:17;101184.21;;;6.45;74.12
62946;BME280;52164;52.212;-1.010;2023-04-07T08:03:42;101188.42;;;6.50;74.05
62946;BME280;52164;52.212;-1.010;2023-04-07T08:06:07;101188.35;;;6.53;73.85
62946;BME280;52164;52.212;-1.010;2023-04-07T08:08:33;101193.44;;;6.59;73.36
62946;BME280;52164;52.212;-1.010;2023-04-07T08:10:59;101193.09;;;6.65;73.71
62946;BME280;52164;52.212;-1.010;2023-04-07T08:13:24;101191.66;;;6.71;73.54
62946;BME280;52164;52.212;-1.010;2023-04-07T08:15:49;101188.34;;;6.80;73.64
62946;BME280;52164;52.212;-1.010;2023-04-07T08:18:15;101190.34;;;6.89;73.48
62946;BME280;52164;52.212;-1.010;2023-04-07T08:20:40;101190.39;;;6.98;73.46
62946;BME280;52164;52.212;-1.010;2023-04-07T08:23:05;101192.74;;;7.07;73.26
62946;BME280;52164;52.212;-1.010;2023-04-07T08:25:30;101199.36;;;7.16;73.00
62946;BME280;52164;52.212;-1.010;2023-04-07T08:27:56;101199.95;;;7.26;72.82
62946;BME280;52164;52.212;-1.010;2023-04-07T08:30:21;101200.30;;;7.32;72.82
62946;BME280;52164;52.212;-1.010;2023-04-07T08:32:46;101202.59;;;7.39;72.35
62946;BME280;52164;52.212;-1.010;2023-04-07T08:35:12;101200.98;;;7.46;72.37
62946;BME280;52164;52.212;-1.010;2023-04-07T08:37:38;101201.14;;;7.52;72.13
62946;BME280;52164;52.212;-1.010;2023-04-07T08:40:04;101201.15;;;7.61;72.31
62946;BME280;52164;52.212;-1.010;2023-04-07T08:42:31;101203.27;;;7.68;71.79
62946;BME280;52164;52.212;-1.010;2023-04-07T08:44:58;101201.62;;;7.74;71.16
62946;BME280;52164;52.212;-1.010;2023-04-07T08:47:27;101200.34;;;7.80;70.84
62946;BME280;52164;52.212;-1.010;2023-04-07T08:49:56;101204.39;;;7.86;70.76
62946;BME280;52164;52.212;-1.010;2023-04-07T08:52:22;101202.02;;;7.91;70.40
62946;BME280;52164;52.212;-1.010;2023-04-07T08:54:53;101200.14;;;7.95;70.11
62946;BME280;52164;52.212;-1.010;2023-04-07T08:57:20;101201.48;;;8.00;70.07
62946;BME280;52164;52.212;-1.010;2023-04-07T08:59:45;101200.69;;;8.04;70.04
62946;BME280;52164;52.212;-1.010;2023-04-07T09:02:13;101200.97;;;8.09;69.88
62946;BME280;52164;52.212;-1.010;2023-04-07T09:04:39;101203.02;;;8.14;69.61
62946;BME280;52164;52.212;-1.010;2023-04-07T09:07:04;101205.31;;;8.21;69.92
62946;BME280;52164;52.212;-1.010;2023-04-07T09:09:29;101196.70;;;8.26;69.31
62946;BME280;52164;52.212;-1.010;2023-04-07T09:11:55;101197.50;;;8.31;69.28
62946;BME280;52164;52.212;-1.010;2023-04-07T09:14:20;101198.50;;;8.37;68.91
62946;BME280;52164;52.212;-1.010;2023-04-07T09:16:46;101196.00;;;8.44;68.90
62946;BME280;52164;52.212;-1.010;2023-04-07T09:19:12;101197.06;;;8.52;69.05
62946;BME280;52164;52.212;-1.010;2023-04-07T09:21:52;101202.02;;;8.60;68.76
62946;BME280;52164;52.212;-1.010;2023-04-07T09:24:22;101200.75;;;8.69;68.58
62946;BME280;52164;52.212;-1.010;2023-04-07T09:26:47;101198.92;;;8.75;68.52
62946;BME280;52164;52.212;-1.010;2023-04-07T09:29:17;101194.05;;;8.81;68.30
62946;BME280;52164;52.212;-1.010;2023-04-07T09:31:43;101196.17;;;8.90;68.34
62946;BME280;52164;52.212;-1.010;2023-04-07T09:34:27;101195.38;;;8.96;68.01
62946;BME280;52164;52.212;-1.010;2023-04-07T09:36:52;101195.27;;;9.01;67.46
62946;BME280;52164;52.212;-1.010;2023-04-07T09:39:18;101192.20;;;9.07;67.44
62946;BME280;52164;52.212;-1.010;2023-04-07T09:41:43;101194.25;;;9.13;67.35
62946;BME280;52164;52.212;-1.010;2023-04-07T09:44:09;101192.92;;;9.20;67.10
62946;BME280;52164;52.212;-1.010;2023-04-07T09:46:35;101191.95;;;9.25;67.07
62946;BME280;52164;52.212;-1.010;2023-04-07T09:49:12;101192.60;;;9.32;67.14
62946;BME280;52164;52.212;-1.010;2023-04-07T09:51:37;101195.23;;;9.42;67.44
62946;BME280;52164;52.212;-1.010;2023-04-07T09:54:03;101197.91;;;9.54;67.29
62946;BME280;52164;52.212;-1.010;2023-04-07T09:56:28;101200.55;;;9.63;66.96
62946;BME280;52164;52.212;-1.010;2023-04-07T09:58:54;101197.12;;;9.72;66.36
62946;BME280;52164;52.212;-1.010;2023-04-07T10:01:20;101199.18;;;9.79;66.14
62946;BME280;52164;52.212;-1.010;2023-04-07T10:03:46;101201.26;;;9.88;66.08
62946;BME280;52164;52.212;-1.010;2023-04-07T10:06:12;101201.61;;;10.00;65.90
62946;BME280;52164;52.212;-1.010;2023-04-07T10:08:38;101195.89;;;10.13;65.86
62946;BME280;52164;52.212;-1.010;2023-04-07T10:11:05;101195.36;;;10.28;65.44
62946;BME280;52164;52.212;-1.010;2023-04-07T10:13:32;101195.88;;;10.39;65.22
62946;BME280;52164;52.212;-1.010;2023-04-07T10:15:58;101194.56;;;10.49;64.85
62946;BME280;52164;52.212;-1.010;2023-04-07T10:18:27;101198.09;;;10.61;64.41
62946;BME280;52164;52.212;-1.010;2023-04-07T10:20:54;101196.97;;;10.73;64.26
62946;BME280;52164;52.212;-1.010;2023-04-07T10:23:24;101196.52;;;10.82;64.16
62946;BME280;52164;52.212;-1.010;2023-04-07T10:25:50;101196.53;;;10.83;63.64
62946;BME280;52164;52.212;-1.010;2023-04-07T10:28:18;101195.41;;;10.96;64.02
62946;BME280;52164;52.212;-1.010;2023-04-07T10:30:46;101190.73;;;11.12;63.25
62946;BME280;52164;52.212;-1.010;2023-04-07T10:33:11;101189.73;;;11.23;63.23
62946;BME280;52164;52.212;-1.010;2023-04-07T10:36:08;101188.39;;;11.32;62.63
62946;BME280;52164;52.212;-1.010;2023-04-07T10:38:22;101185.27;;;11.47;61.93
62946;BME280;52164;52.212;-1.010;2023-04-07T10:40:47;101182.69;;;11.61;61.51
62946;BME280;52164;52.212;-1.010;2023-04-07T10:43:12;101179.73;;;11.73;61.43
62946;BME280;52164;52.212;-1.010;2023-04-07T10:45:57;101177.68;;;11.89;61.52
62946;BME280;52164;52.212;-1.010;2023-04-07T10:48:24;101175.08;;;12.00;61.09
62946;BME280;52164;52.212;-1.010;2023-04-07T10:51:20;101179.76;;;12.06;60.89
62946;BME280;52164;52.212;-1.010;2023-04-07T10:53:38;101179.35;;;11.96;60.10
62946;BME280;52164;52.212;-1.010;2023-04-07T10:56:23;101179.73;;;12.00;59.90
62946;BME280;52164;52.212;-1.010;2023-04-07T10:58:57;101172.98;;;12.14;59.61
62946;BME280;52164;52.212;-1.010;2023-04-07T11:01:35;101172.52;;;12.33;59.21
62946;BME280;52164;52.212;-1.010;2023-04-07T11:04:00;101165.77;;;12.49;58.23
62946;BME280;52164;52.212;-1.010;2023-04-07T11:06:26;101167.95;;;12.68;58.24
62946;BME280;52164;52.212;-1.010;2023-04-07T11:08:52;101165.81;;;12.74;58.11
62946;BME280;52164;52.212;-1.010;2023-04-07T11:11:20;101171.90;;;12.67;58.15
62946;BME280;52164;52.212;-1.010;2023-04-07T11:13:58;101173.29;;;12.50;57.66
62946;BME280;52164;52.212;-1.010;2023-04-07T11:16:33;101170.02;;;12.35;57.83
62946;BME280;52164;52.212;-1.010;2023-04-07T11:19:01;101169.44;;;12.22;57.78
62946;BME280;52164;52.212;-1.010;2023-04-07T11:21:27;101168.95;;;12.35;57.59
62946;BME280;52164;52.212;-1.010;2023-04-07T11:23:52;101168.48;;;12.63;57.30
62946;BME280;52164;52.212;-1.010;2023-04-07T11:26:17;101167.98;;;12.98;57.11
62946;BME280;52164;52.212;-1.010;2023-04-07T11:28:51;101168.90;;;13.33;56.60
62946;BME280;52164;52.212;-1.010;2023-04-07T11:31:21;101164.61;;;13.44;56.41
62946;BME280;52164;52.212;-1.010;2023-04-07T11:33:50;101172.86;;;13.36;56.08
62946;BME280;52164;52.212;-1.010;2023-04-07T11:36:24;101166.02;;;13.52;55.52
62946;BME280;52164;52.212;-1.010;2023-04-07T11:38:50;101168.86;;;13.69;55.36
62946;BME280;52164;52.212;-1.010;2023-04-07T11:41:16;101168.30;;;13.80;54.95
62946;BME280;52164;52.212;-1.010;2023-04-07T11:43:41;101157.83;;;13.97;53.93
62946;BME280;52164;52.212;-1.010;2023-04-07T11:46:11;101153.77;;;14.26;53.63
62946;BME280;52164;52.212;-1.010;2023-04-07T11:48:37;101155.04;;;14.57;53.94
62946;BME280;52164;52.212;-1.010;2023-04-07T11:51:04;101157.61;;;14.79;53.27
62946;BME280;52164;52.212;-1.010;2023-04-07T11:53:33;101159.45;;;14.98;52.50
62946;BME280;52164;52.212;-1.010;2023-04-07T11:56:02;101158.99;;;14.85;51.24
62946;BME280;52164;52.212;-1.010;2023-04-07T11:58:28;101160.40;;;14.62;50.73
62946;BME280;52164;52.212;-1.010;2023-04-07T12:00:55;101156.19;;;14.42;50.21
62946;BME280;52164;52.212;-1.010;2023-04-07T12:03:21;101153.06;;;14.55;50.48
62946;BME280;52164;52.212;-1.010;2023-04-07T12:05:46;101156.91;;;14.75;51.23
62946;BME280;52164;52.212;-1.010;2023-04-07T12:08:12;101157.34;;;14.92;50.07
62946;BME280;52164;52.212;-1.010;2023-04-07T12:10:38;101155.92;;;15.11;49.23
62946;BME280;52164;52.212;-1.010;2023-04-07T12:13:06;101157.70;;;15.33;49.38
62946;BME280;52164;52.212;-1.010;2023-04-07T12:15:32;101155.86;;;15.56;48.97
62946;BME280;52164;52.212;-1.010;2023-04-07T12:17:57;101156.19;;;15.77;48.43
62946;BME280;52164;52.212;-1.010;2023-04-07T12:20:26;101156.24;;;16.05;47.90
62946;BME280;52164;52.212;-1.010;2023-04-07T12:22:52;101157.08;;;16.38;48.14
62946;BME280;52164;52.212;-1.010;2023-04-07T12:25:17;101154.46;;;16.57;47.37
62946;BME280;52164;52.212;-1.010;2023-04-07T12:27:43;101155.94;;;16.67;47.78
62946;BME280;52164;52.212;-1.010;2023-04-07T12:30:08;101152.55;;;16.65;47.09
62946;BME280;52164;52.212;-1.010;2023-04-07T12:32:33;101153.87;;;16.73;46.74
62946;BME280;52164;52.212;-1.010;2023-04-07T12:34:59;101152.52;;;16.54;46.74
62946;BME280;52164;52.212;-1.010;2023-04-07T12:37:25;101156.27;;;16.31;46.08
62946;BME280;52164;52.212;-1.010;2023-04-07T12:39:50;101152.50;;;16.30;46.22
62946;BME280;52164;52.212;-1.010;2023-04-07T12:42:15;101146.34;;;16.46;45.54
62946;BME280;52164;52.212;-1.010;2023-04-07T12:44:41;101144.78;;;16.66;45.17
62946;BME280;52164;52.212;-1.010;2023-04-07T12:47:06;101146.47;;;16.86;45.31